createdAt,value
2019-01-23T08:39:08.630Z,65.20
2019-01-23T08:44:15.302Z,72.47
2019-01-23T08:49:21.700Z,50.17
2019-01-23T08:59:35.056Z,80.23
2019-01-23T09:04:41.541Z,71.20
2019-01-23T09:09:47.816Z,69.10
2019-01-23T09:14:54.381Z,69.07
2019-01-23T09:20:00.701Z,67.50
2019-01-23T09:25:07.287Z,71.72
2019-01-23T09:40:26.284Z,74.25
2019-01-23T09:45:32.690Z,76.87
2019-01-23T09:50:38.996Z,55.17
2019-01-23T09:55:45.559Z,76.00
2019-01-23T10:05:58.035Z,72.10
2019-01-23T10:11:04.584Z,72.60
2019-01-23T10:16:10.997Z,69.80
2019-01-23T10:21:17.551Z,71.63
2019-01-23T10:26:23.983Z,66.17
2019-01-23T10:31:30.465Z,73.13
2019-01-23T10:36:36.994Z,66.50
2019-01-23T10:41:43.480Z,64.60
2019-01-23T10:51:55.910Z,63.40
2019-01-23T10:57:02.825Z,68.42
2019-01-23T11:02:09.316Z,67.97
2019-01-23T11:07:15.688Z,60.47
2019-01-23T11:17:27.969Z,57.77
2019-01-23T11:22:34.529Z,56.80
2019-01-23T11:27:40.975Z,54.97
2019-01-23T11:32:47.295Z,53.73
2019-01-23T11:37:53.693Z,54.10
2019-01-23T11:48:06.530Z,49.60
2019-01-23T11:53:13.526Z,46.67
2019-01-23T12:03:26.489Z,40.37
2019-01-23T12:08:32.945Z,39.50
2019-01-23T12:13:39.669Z,42.03
2019-01-23T12:18:45.977Z,39.90
2019-01-23T12:23:58.271Z,42.83
2019-01-23T12:29:00.651Z,39.03
2019-01-23T12:39:13.401Z,36.90
2019-01-23T12:44:19.781Z,34.03
2019-01-23T12:49:26.274Z,32.42
2019-01-23T12:54:32.646Z,38.20
2019-01-23T13:04:45.405Z,38.80
2019-01-23T13:14:57.771Z,27.83
2019-01-23T13:20:04.276Z,34.73
2019-01-23T13:25:10.723Z,32.57
2019-01-23T13:30:17.268Z,36.98
2019-01-23T13:35:23.692Z,28.13
2019-01-23T13:40:31.944Z,32.47
2019-01-23T13:45:42.980Z,29.57
2019-01-23T13:50:52.986Z,32.43
2019-01-23T13:56:00.749Z,30.40
2019-01-23T14:01:07.616Z,29.87
2019-01-23T14:16:37.347Z,31.30
2019-01-23T14:21:46.371Z,32.80
2019-01-23T14:26:58.008Z,32.25
2019-01-23T14:37:18.994Z,30.63
2019-01-23T14:42:30.307Z,34.03
2019-01-23T14:48:01.013Z,37.63
2019-01-23T14:53:08.090Z,37.10
2019-01-23T14:58:16.300Z,37.53
2019-01-23T15:03:22.739Z,34.57
2019-01-23T15:08:29.407Z,34.50
2019-01-23T15:13:39.294Z,29.03
2019-01-23T15:23:56.617Z,31.30
2019-01-23T15:29:03.026Z,33.75
2019-01-23T15:34:09.544Z,31.70
2019-01-23T15:39:16.448Z,30.87
2019-01-23T15:44:23.095Z,33.07
2019-01-23T15:49:29.629Z,30.13
2019-01-23T15:59:42.653Z,40.97
2019-01-23T16:04:49.347Z,35.97
2019-01-23T16:09:56.001Z,49.38
2019-01-23T16:15:03.876Z,41.83
2019-01-23T16:25:18.619Z,41.83
2019-01-23T16:30:25.370Z,38.07
2019-01-23T16:40:45.008Z,50.77
2019-01-23T16:46:08.562Z,42.30
2019-01-23T16:51:15.969Z,35.07
2019-01-23T17:01:29.991Z,37.38
2019-01-23T17:11:42.988Z,38.50
2019-01-23T17:16:50.279Z,48.80
2019-01-23T17:21:58.361Z,48.80
2019-01-23T17:27:05.615Z,49.60
2019-01-23T21:38:29.992Z,200.90
2019-01-23T21:43:37.062Z,196.63
2019-01-23T21:48:44.711Z,186.82
2019-01-23T21:58:57.595Z,175.53
2019-01-23T22:09:12.657Z,175.50
2019-01-23T22:14:19.983Z,174.93
2019-01-23T22:19:26.546Z,180.25
2019-01-23T22:24:33.636Z,173.13
2019-01-23T22:29:41.281Z,181.93
2019-01-23T22:34:47.635Z,172.32
2019-01-23T22:39:54.279Z,165.60
2019-01-23T22:45:00.692Z,183.20
2019-01-23T22:50:06.998Z,183.45
2019-01-23T22:55:13.557Z,188.37
2019-01-23T23:00:19.988Z,185.75
2019-01-23T23:05:27.353Z,155.93
2019-01-23T23:10:33.723Z,175.05
2019-01-23T23:15:40.274Z,168.30
2019-01-23T23:20:46.684Z,158.30
2019-01-23T23:25:53.289Z,152.17
2019-01-23T23:30:59.683Z,135.52
2019-01-23T23:36:06.276Z,138.43
2019-01-23T23:41:12.623Z,115.00
2019-01-23T23:46:19.101Z,115.17
2019-01-23T23:51:25.583Z,117.13
2019-01-23T23:56:32.063Z,124.63
